createdAt,value
2022-08-17T00:00:34.803Z,1.2
2022-08-17T00:01:51.659Z,1
2022-08-17T00:02:52.822Z,1.1
2022-08-17T00:04:02.369Z,0.9
2022-08-17T00:05:10.034Z,1.1
2022-08-17T00:06:18.724Z,1.1
2022-08-17T00:07:28.411Z,0.9
2022-08-17T00:08:37.111Z,1.2
2022-08-17T00:09:46.783Z,0.9
2022-08-17T00:10:55.444Z,1
2022-08-17T00:12:34.800Z,0.9
2022-08-17T00:13:15.787Z,1.1
2022-08-17T00:14:23.453Z,0.9
2022-08-17T00:15:33.135Z,1.3
2022-08-17T00:16:55.714Z,0.8
2022-08-17T00:17:51.430Z,0.9
2022-08-17T00:19:08.201Z,1
2022-08-17T00:20:09.785Z,0.7
2022-08-17T00:21:19.014Z,0.9
2022-08-17T00:22:33.463Z,1.1
2022-08-17T00:23:38.802Z,1.1
2022-08-17T00:24:49.488Z,0.9
2022-08-17T00:25:59.232Z,1
2022-08-17T00:27:07.932Z,0.9
2022-08-17T00:28:17.627Z,1
2022-08-17T00:29:26.293Z,0.7
2022-08-17T00:30:48.428Z,0.9
2022-08-17T00:31:46.647Z,1.2
2022-08-17T00:33:10.188Z,1.1
2022-08-17T00:34:05.959Z,1
2022-08-17T00:35:15.620Z,0.9
2022-08-17T00:36:23.293Z,1.1
2022-08-17T00:37:33.060Z,1.1
2022-08-17T00:38:41.708Z,1.2
2022-08-17T00:39:50.520Z,1.3
2022-08-17T00:41:00.086Z,1
2022-08-17T00:42:07.781Z,0.9
2022-08-17T00:43:16.516Z,1.2
2022-08-17T00:44:30.228Z,1
2022-08-17T00:45:35.854Z,1
2022-08-17T00:46:45.582Z,1
2022-08-17T00:47:55.283Z,1
2022-08-17T00:49:03.960Z,0.7
2022-08-17T00:50:12.686Z,0.9
2022-08-17T00:51:21.349Z,1.1
2022-08-17T00:52:31.039Z,1.3
2022-08-17T00:53:39.763Z,1
2022-08-17T00:54:48.449Z,1.1
2022-08-17T00:55:58.090Z,0.9
2022-08-17T00:57:05.765Z,0.8
2022-08-17T00:58:16.465Z,1.1
2022-08-17T00:59:26.141Z,1.1
2022-08-17T01:00:34.883Z,0.9
2022-08-17T01:01:44.585Z,0.9
2022-08-17T01:02:54.402Z,0.8
2022-08-17T01:04:03.934Z,0.7
2022-08-17T01:05:13.605Z,1.1
2022-08-17T01:06:21.521Z,1.2
2022-08-17T01:07:32.185Z,0.9
2022-08-17T01:08:39.867Z,0.8
2022-08-17T01:09:48.565Z,1
2022-08-17T01:11:01.686Z,0.9
2022-08-17T01:12:06.929Z,0.8
2022-08-17T01:13:16.617Z,0.8
2022-08-17T01:14:26.311Z,0.9
2022-08-17T01:15:35.023Z,1.1
2022-08-17T01:16:44.698Z,0.9
2022-08-17T01:17:53.432Z,0.8
2022-08-17T01:19:01.118Z,1.3
2022-08-17T01:20:10.795Z,0.9
2022-08-17T01:21:19.467Z,1.1
2022-08-17T01:22:28.223Z,1.1
2022-08-17T01:23:37.987Z,0.9
2022-08-17T01:24:46.660Z,1.1
2022-08-17T01:25:56.344Z,1.3
2022-08-17T01:27:10.240Z,1.2
2022-08-17T01:28:33.707Z,1.2
2022-08-17T01:29:26.471Z,1.4
2022-08-17T01:30:57.499Z,1.8
2022-08-17T01:31:45.838Z,1.4
2022-08-17T01:32:55.579Z,2
2022-08-17T01:34:05.241Z,1.8
2022-08-17T01:35:15.036Z,1.5
2022-08-17T01:36:23.711Z,1.4
2022-08-17T01:37:32.397Z,0.9
2022-08-17T01:38:42.143Z,1.4
2022-08-17T01:39:49.862Z,1.3
2022-08-17T01:40:58.537Z,1.5
2022-08-17T01:42:08.211Z,0.9
2022-08-17T01:43:18.890Z,1.2
2022-08-17T01:44:28.665Z,1
2022-08-17T01:45:37.322Z,1
2022-08-17T01:46:45.033Z,0.8
2022-08-17T01:47:54.706Z,0.8
2022-08-17T01:49:01.424Z,1.4
2022-08-17T01:50:10.106Z,0.9
2022-08-17T01:51:19.796Z,0.9
2022-08-17T01:52:28.465Z,0.8
2022-08-17T01:53:38.148Z,1.3
2022-08-17T01:54:47.833Z,1.2
2022-08-17T01:55:56.554Z,0.9
2022-08-17T01:57:06.235Z,1.1
2022-08-17T01:58:13.961Z,0.9
2022-08-17T01:59:22.633Z,1
2022-08-17T02:00:46.982Z,0.9
2022-08-17T02:01:42.075Z,0.9
2022-08-17T02:02:52.717Z,1
2022-08-17T02:04:02.449Z,1.3
2022-08-17T02:05:11.125Z,1
2022-08-17T02:06:27.382Z,1.4
2022-08-17T02:07:32.465Z,1
2022-08-17T02:09:02.174Z,1.1
2022-08-17T02:09:54.009Z,1.3
2022-08-17T02:11:02.695Z,0.9
2022-08-17T02:12:38.727Z,1.2
2022-08-17T02:13:22.040Z,0.9
2022-08-17T02:14:30.706Z,1.2
2022-08-17T02:15:40.409Z,0.8
2022-08-17T02:16:49.080Z,0.8
2022-08-17T02:17:57.816Z,1
2022-08-17T02:19:07.529Z,1
2022-08-17T02:20:15.221Z,0.9
2022-08-17T02:21:25.906Z,1.1
2022-08-17T02:22:35.578Z,1
2022-08-17T02:23:44.304Z,0.9
2022-08-17T02:24:59.185Z,0.9
2022-08-17T02:26:02.664Z,0.8
2022-08-17T02:27:11.353Z,0.8
2022-08-17T02:28:21.093Z,0.9
2022-08-17T02:29:28.783Z,0.9
2022-08-17T02:31:00.576Z,1
2022-08-17T02:31:48.076Z,1
2022-08-17T02:32:55.757Z,1.2
2022-08-17T02:34:05.510Z,1
2022-08-17T02:35:13.065Z,1
2022-08-17T02:36:26.883Z,0.8
2022-08-17T02:37:32.411Z,0.9
2022-08-17T02:38:41.191Z,1.2
2022-08-17T02:39:50.907Z,1.2
2022-08-17T02:40:59.536Z,1.1
2022-08-17T02:42:07.277Z,1.4
2022-08-17T02:43:16.957Z,1.1
2022-08-17T02:44:35.545Z,1.5
2022-08-17T02:45:36.299Z,1.5
2022-08-17T02:46:45.967Z,1.5
2022-08-17T02:47:55.672Z,1.4
2022-08-17T02:49:04.332Z,1.7
2022-08-17T02:50:12.021Z,1.7
2022-08-17T02:51:20.722Z,1.5
2022-08-17T02:52:41.975Z,1.4
2022-08-17T02:53:39.025Z,1.3
2022-08-17T02:54:48.709Z,1.2
2022-08-17T02:55:57.447Z,2.3
2022-08-17T02:57:06.196Z,2.2
2022-08-17T02:58:15.858Z,1.6
2022-08-17T02:59:25.524Z,2.2
2022-08-17T03:00:35.223Z,1.7
2022-08-17T03:01:43.997Z,1.5
2022-08-17T03:02:52.818Z,1.8
2022-08-17T03:04:02.404Z,1.4
2022-08-17T03:05:12.079Z,1.4
2022-08-17T03:06:20.787Z,1.4
2022-08-17T03:07:30.494Z,1.7
2022-08-17T03:08:38.143Z,1.6
2022-08-17T03:09:47.855Z,1.7
2022-08-17T03:10:56.528Z,1.5
2022-08-17T03:12:05.202Z,2
2022-08-17T03:13:14.985Z,1.6
2022-08-17T03:14:26.050Z,1.4
2022-08-17T03:15:33.307Z,1.5
2022-08-17T03:16:42.976Z,1.2
2022-08-17T03:17:52.664Z,1.5
2022-08-17T03:19:02.366Z,1.7
2022-08-17T03:20:11.049Z,1.1
2022-08-17T03:21:18.784Z,1.1
2022-08-17T03:22:35.785Z,1.1
2022-08-17T03:23:38.082Z,1
2022-08-17T03:24:47.820Z,0.9
2022-08-17T03:25:57.485Z,1.1
2022-08-17T03:27:06.183Z,1.1
2022-08-17T03:28:15.887Z,0.9
2022-08-17T03:29:24.591Z,1
2022-08-17T03:30:32.269Z,0.9
2022-08-17T03:31:41.925Z,0.9
2022-08-17T03:32:49.790Z,0.8
2022-08-17T03:33:59.286Z,0.9
2022-08-17T03:35:08.971Z,1
2022-08-17T03:36:18.683Z,1.4
2022-08-17T03:37:28.354Z,1.1
2022-08-17T03:38:39.133Z,1
2022-08-17T03:39:47.798Z,1
2022-08-17T03:40:59.646Z,1.3
2022-08-17T03:42:07.070Z,1.1
2022-08-17T03:43:16.794Z,1.2
2022-08-17T03:44:27.467Z,1.1
2022-08-17T03:45:36.154Z,1.4
2022-08-17T03:46:45.834Z,0.8
2022-08-17T03:47:54.519Z,1.1
2022-08-17T03:49:03.198Z,0.8
2022-08-17T03:50:12.864Z,0.8
2022-08-17T03:51:21.542Z,1.4
2022-08-17T03:52:30.258Z,0.8
2022-08-17T03:53:39.990Z,1
2022-08-17T03:54:47.667Z,0.9
2022-08-17T03:55:57.361Z,0.7
2022-08-17T03:57:06.042Z,0.8
2022-08-17T03:58:13.713Z,1
2022-08-17T03:59:23.426Z,0.9
2022-08-17T04:00:32.098Z,0.9
2022-08-17T04:01:40.873Z,0.7
2022-08-17T04:02:50.701Z,1.3
2022-08-17T04:03:59.243Z,0.9
2022-08-17T04:05:08.961Z,1.2
2022-08-17T04:06:17.655Z,1
2022-08-17T04:07:26.344Z,0.8
2022-08-17T04:08:36.640Z,0.9
2022-08-17T04:09:45.279Z,1
2022-08-17T04:10:54.989Z,1
2022-08-17T04:12:05.163Z,0.9
2022-08-17T04:13:13.328Z,1
2022-08-17T04:14:23.043Z,1.2
2022-08-17T04:15:32.763Z,1.1
2022-08-17T04:16:41.575Z,0.9
2022-08-17T04:17:51.291Z,1
2022-08-17T04:18:59.958Z,0.9
2022-08-17T04:20:08.636Z,1.2
2022-08-17T04:21:17.316Z,1.2
2022-08-17T04:22:31.609Z,1
2022-08-17T04:23:37.700Z,0.9
2022-08-17T04:24:46.387Z,0.8
2022-08-17T04:25:54.074Z,1.2
2022-08-17T04:27:02.742Z,0.7
2022-08-17T04:28:15.905Z,1
2022-08-17T04:29:22.126Z,0.9
2022-08-17T04:30:31.817Z,1.2
2022-08-17T04:31:40.513Z,0.9
2022-08-17T04:33:00.729Z,1.1
2022-08-17T04:33:59.881Z,1.1
2022-08-17T04:35:09.567Z,0.9
2022-08-17T04:36:19.254Z,1.3
2022-08-17T04:37:28.936Z,1.2
2022-08-17T04:38:37.646Z,1.9
2022-08-17T04:39:47.403Z,1.5
2022-08-17T04:40:56.077Z,1.6
2022-08-17T04:42:05.819Z,1.6
2022-08-17T04:43:15.506Z,1.4
2022-08-17T04:44:27.297Z,1.7
2022-08-17T04:45:36.085Z,1.1
2022-08-17T04:46:44.828Z,1.2
2022-08-17T04:47:53.523Z,1.8
2022-08-17T04:49:11.202Z,1.3
2022-08-17T04:50:26.091Z,1.2
2022-08-17T04:51:38.076Z,1.2
2022-08-17T04:52:48.735Z,1.3
2022-08-17T04:53:58.425Z,1.2
2022-08-17T04:55:08.129Z,1
2022-08-17T04:56:18.904Z,1.1
2022-08-17T04:57:28.480Z,1.1
2022-08-17T04:58:37.179Z,0.9
2022-08-17T04:59:46.898Z,0.9
2022-08-17T05:00:56.685Z,0.9
2022-08-17T05:02:05.328Z,0.9
2022-08-17T05:03:15.162Z,1.2
2022-08-17T05:04:33.703Z,0.9
2022-08-17T05:05:33.477Z,1.4
2022-08-17T05:06:43.189Z,0.8
2022-08-17T05:07:51.857Z,0.8
2022-08-17T05:09:01.575Z,0.9
2022-08-17T05:10:11.255Z,1.3
2022-08-17T05:11:18.966Z,1.3
2022-08-17T05:12:28.698Z,1.1
2022-08-17T05:13:37.368Z,1.3
2022-08-17T05:14:46.174Z,1.2
2022-08-17T05:15:55.907Z,1
2022-08-17T05:17:07.317Z,0.9
2022-08-17T05:18:15.274Z,0.7
2022-08-17T05:19:24.931Z,0.7
2022-08-17T05:20:32.676Z,1
2022-08-17T05:21:42.378Z,0.6
2022-08-17T05:22:52.284Z,0.7
2022-08-17T05:23:59.802Z,0.6
2022-08-17T05:25:09.477Z,0.7
2022-08-17T05:26:19.910Z,0.9
2022-08-17T05:27:30.821Z,0.7
2022-08-17T05:28:40.459Z,0.9
2022-08-17T05:29:48.132Z,0.9
2022-08-17T05:30:57.831Z,0.9
2022-08-17T05:32:37.607Z,1.2
2022-08-17T05:33:15.202Z,1
2022-08-17T05:34:24.873Z,1
2022-08-17T05:35:33.542Z,1.1
2022-08-17T05:36:44.549Z,0.6
2022-08-17T05:37:53.915Z,0.8
2022-08-17T05:39:03.628Z,1
2022-08-17T05:40:13.331Z,0.9
2022-08-17T05:41:22.010Z,0.9
2022-08-17T05:42:30.685Z,0.9
2022-08-17T05:43:40.393Z,0.9
2022-08-17T05:44:48.072Z,0.9
2022-08-17T05:45:56.791Z,0.7
2022-08-17T05:47:06.453Z,0.7
2022-08-17T05:48:16.129Z,0.8
2022-08-17T05:49:25.860Z,1.1
2022-08-17T05:50:35.549Z,0.8
2022-08-17T05:51:44.234Z,0.9
2022-08-17T05:52:54.011Z,1.2
2022-08-17T05:54:01.678Z,1
2022-08-17T05:55:10.410Z,0.9
2022-08-17T05:56:22.739Z,0.9
2022-08-17T05:57:28.796Z,0.7
2022-08-17T05:58:38.466Z,0.8
2022-08-17T05:59:47.155Z,0.7
2022-08-17T06:00:54.926Z,0.5
2022-08-17T06:02:04.547Z,0.6
2022-08-17T06:03:12.257Z,0.9
2022-08-17T06:04:20.936Z,0.6
2022-08-17T06:05:30.609Z,0.6
2022-08-17T06:06:39.322Z,0.8
2022-08-17T06:07:49.077Z,0.8
2022-08-17T06:08:58.738Z,0.7
2022-08-17T06:10:08.439Z,0.9
2022-08-17T06:11:17.138Z,1.1
2022-08-17T06:12:25.835Z,0.9
2022-08-17T06:13:34.560Z,0.8
2022-08-17T06:14:44.233Z,0.5
2022-08-17T06:15:51.941Z,0.8
2022-08-17T06:17:01.645Z,1
2022-08-17T06:18:10.477Z,0.8
2022-08-17T06:19:17.145Z,1.2
2022-08-17T06:20:26.866Z,1.4
2022-08-17T06:21:36.605Z,0.9
2022-08-17T06:22:46.366Z,0.7
2022-08-17T06:23:56.388Z,0.6
2022-08-17T06:25:05.076Z,0.8
2022-08-17T06:26:15.951Z,0.7
2022-08-17T06:27:24.663Z,0.9
2022-08-17T06:28:32.379Z,0.7
2022-08-17T06:29:42.236Z,0.7
2022-08-17T06:30:58.714Z,0.8
2022-08-17T06:32:01.741Z,0.7
2022-08-17T06:33:11.444Z,0.7
2022-08-17T06:34:20.178Z,1
2022-08-17T06:35:31.923Z,0.3
2022-08-17T06:36:38.637Z,0.6
2022-08-17T06:37:46.301Z,0.7
2022-08-17T06:38:56.983Z,0.8
2022-08-17T06:40:04.693Z,0.9
2022-08-17T06:41:13.486Z,0.5
2022-08-17T06:42:54.281Z,0.8
2022-08-17T06:43:31.864Z,0.6
2022-08-17T06:44:42.378Z,2.1
2022-08-17T06:45:50.210Z,3.2
2022-08-17T06:46:59.935Z,0.7
2022-08-17T06:48:08.606Z,0.5
2022-08-17T06:49:16.285Z,0.7
2022-08-17T06:50:26.081Z,0.4
2022-08-17T06:51:33.662Z,0.7
2022-08-17T06:52:46.241Z,0.4
2022-08-17T06:53:54.096Z,0.5
2022-08-17T06:55:01.750Z,0.6
2022-08-17T06:56:11.429Z,0.4
2022-08-17T06:57:20.126Z,0.6
2022-08-17T06:58:29.926Z,0.5
2022-08-17T06:59:54.399Z,0.4
2022-08-17T07:00:48.365Z,0.4
2022-08-17T07:01:56.824Z,0.6
2022-08-17T07:03:06.686Z,0.4
2022-08-17T07:04:16.192Z,0.4
2022-08-17T07:05:25.897Z,0.6
2022-08-17T07:06:37.792Z,0.4
2022-08-17T07:07:42.266Z,0.6
2022-08-17T07:08:51.965Z,0.2
2022-08-17T07:09:59.680Z,0.2
2022-08-17T07:11:08.387Z,0.7
2022-08-17T07:12:18.076Z,0.2
2022-08-17T07:13:27.758Z,0.5
2022-08-17T07:14:37.435Z,0.6
2022-08-17T07:15:46.153Z,0.4
2022-08-17T07:16:54.833Z,0.4
2022-08-17T07:18:04.525Z,0.4
2022-08-17T07:19:12.194Z,0.2
2022-08-17T07:20:21.890Z,0.2
2022-08-17T07:21:31.609Z,0.3
2022-08-17T07:22:50.436Z,0.5
2022-08-17T07:23:52.065Z,0.4
2022-08-17T07:25:00.762Z,0.2
2022-08-17T07:26:08.480Z,0.2
2022-08-17T07:27:17.228Z,0.3
2022-08-17T07:28:24.954Z,0.3
2022-08-17T07:29:33.640Z,0.3
2022-08-17T07:30:45.542Z,0.3
2022-08-17T07:31:52.007Z,0.3
2022-08-17T07:33:01.741Z,0.3
2022-08-17T07:34:10.395Z,0.2
2022-08-17T07:35:18.113Z,0.3
2022-08-17T07:36:30.140Z,0.4
2022-08-17T07:37:37.482Z,0.2
2022-08-17T07:38:46.292Z,0.4
2022-08-17T07:39:59.001Z,0.4
2022-08-17T07:41:04.664Z,0.7
2022-08-17T07:42:14.349Z,0.2
2022-08-17T07:43:23.988Z,0.2
2022-08-17T07:44:33.673Z,0.3
2022-08-17T07:45:44.339Z,0.2
2022-08-17T07:46:53.034Z,0.1
2022-08-17T07:48:00.768Z,0.2
2022-08-17T07:49:10.518Z,0.2
2022-08-17T07:50:20.557Z,0.4
2022-08-17T07:51:28.965Z,0.4
2022-08-17T07:52:48.612Z,0.1
2022-08-17T07:53:48.290Z,0.2
2022-08-17T07:54:58.001Z,0.3
2022-08-17T07:56:06.714Z,0.1
2022-08-17T07:57:15.443Z,0.2
2022-08-17T07:58:25.126Z,0.4
2022-08-17T07:59:34.791Z,0.3
2022-08-17T08:00:44.474Z,0.1
2022-08-17T08:01:56.210Z,0.1
2022-08-17T08:03:04.017Z,0.2
2022-08-17T08:04:17.617Z,0.2
2022-08-17T08:05:25.113Z,0.2
2022-08-17T08:06:34.247Z,0.2
2022-08-17T08:07:43.965Z,0.1
2022-08-17T08:08:52.680Z,0.2
2022-08-17T08:10:02.403Z,0.1
2022-08-17T08:11:11.081Z,0.2
2022-08-17T08:12:18.786Z,0.1
2022-08-17T08:13:29.479Z,0.2
2022-08-17T08:14:38.188Z,0.3
2022-08-17T08:15:53.959Z,0.3
2022-08-17T08:16:57.572Z,0.3
2022-08-17T08:18:05.368Z,0.4
2022-08-17T08:19:18.202Z,0.2
2022-08-17T08:20:37.942Z,0.3
2022-08-17T08:21:34.464Z,0.2
2022-08-17T08:22:44.147Z,0
2022-08-17T08:23:51.826Z,0.1
2022-08-17T08:25:00.631Z,0.3
2022-08-17T08:26:11.135Z,0.3
2022-08-17T08:27:18.992Z,0.2
2022-08-17T08:28:28.737Z,0.4
2022-08-17T08:29:37.426Z,0.1
2022-08-17T08:30:45.244Z,0.5
2022-08-17T08:31:53.924Z,0.3
2022-08-17T08:33:02.604Z,0.2
2022-08-17T08:34:44.898Z,0.1
2022-08-17T08:35:22.982Z,0.3
2022-08-17T08:36:56.520Z,0.3
2022-08-17T08:37:43.652Z,0.1
2022-08-17T08:38:53.223Z,0.3
2022-08-17T08:40:00.923Z,0.3
2022-08-17T08:41:10.605Z,0.2
2022-08-17T08:42:19.336Z,0.2
2022-08-17T08:43:28.028Z,0.2
2022-08-17T08:44:59.229Z,0.3
2022-08-17T08:45:47.389Z,0.2
2022-08-17T08:46:57.161Z,0.2
2022-08-17T08:48:06.900Z,0.1
2022-08-17T08:49:17.599Z,0.3
2022-08-17T08:50:30.420Z,0.1
2022-08-17T08:51:37.975Z,0.2
2022-08-17T08:52:45.664Z,0.1
2022-08-17T08:53:55.371Z,0.1
2022-08-17T08:55:03.042Z,0.3
2022-08-17T08:56:11.739Z,0.4
2022-08-17T08:57:26.618Z,0.1
2022-08-17T08:58:41.463Z,0.2
2022-08-17T08:59:44.522Z,0.3
2022-08-17T09:00:51.448Z,0.3
2022-08-17T09:01:59.135Z,0.2
2022-08-17T09:03:08.831Z,0.2
2022-08-17T09:04:24.507Z,0.2
2022-08-17T09:05:28.257Z,0.3
2022-08-17T09:06:38.838Z,0.4
2022-08-17T09:07:46.629Z,0.1
2022-08-17T09:08:56.312Z,0.3
2022-08-17T09:10:04.980Z,0.3
2022-08-17T09:11:12.734Z,0.4
2022-08-17T09:12:22.419Z,0.4
2022-08-17T09:13:30.101Z,0.3
2022-08-17T09:14:44.907Z,0.1
2022-08-17T09:15:49.507Z,0.2
2022-08-17T09:16:58.256Z,0.2
2022-08-17T09:19:02.086Z,0.4
2022-08-17T09:19:16.695Z,0.4
2022-08-17T09:20:26.426Z,0.2
2022-08-17T09:21:36.070Z,0.1
2022-08-17T09:22:43.837Z,0.4
2022-08-17T09:23:53.446Z,0.1
2022-08-17T09:25:02.191Z,0.2
2022-08-17T09:26:10.892Z,0.3
2022-08-17T09:27:20.579Z,0.3
2022-08-17T09:28:28.515Z,0.2
2022-08-17T09:29:38.229Z,0.1
2022-08-17T09:30:47.007Z,0.2
2022-08-17T09:31:55.676Z,0.2
2022-08-17T09:33:05.395Z,0.3
2022-08-17T09:34:13.259Z,0.2
2022-08-17T09:35:22.976Z,0.3
2022-08-17T09:36:32.740Z,0.2
2022-08-17T09:37:40.427Z,0.2
2022-08-17T09:38:50.157Z,0.4
2022-08-17T09:40:00.013Z,0.1
2022-08-17T09:41:08.718Z,0.2
2022-08-17T09:42:18.521Z,0.1
2022-08-17T09:43:27.393Z,0.1
2022-08-17T09:44:36.070Z,0.2
2022-08-17T09:45:45.846Z,0.2
2022-08-17T09:46:54.525Z,0.2
2022-08-17T09:48:04.246Z,0.2
2022-08-17T09:49:13.938Z,0.4
2022-08-17T09:50:55.797Z,0.2
2022-08-17T09:51:34.363Z,0.2
2022-08-17T09:52:44.161Z,0.1
2022-08-17T09:53:52.834Z,0.4
2022-08-17T09:55:02.552Z,0.2
2022-08-17T09:56:10.238Z,0.2
2022-08-17T09:57:29.617Z,0.2
2022-08-17T09:58:29.840Z,0.2
2022-08-17T09:59:39.526Z,0.3
2022-08-17T10:00:50.303Z,0.2
2022-08-17T10:01:58.090Z,0.2
2022-08-17T10:03:06.838Z,0.1
2022-08-17T10:04:15.589Z,0.1
2022-08-17T10:05:23.365Z,0.2
2022-08-17T10:06:33.052Z,0.3
2022-08-17T10:07:41.835Z,0.3
2022-08-17T10:08:50.562Z,0.1
2022-08-17T10:10:00.338Z,0.3
2022-08-17T10:11:08.029Z,0.3
2022-08-17T10:12:17.887Z,0.2
2022-08-17T10:13:27.373Z,0.2
2022-08-17T10:14:43.432Z,0.2
2022-08-17T10:15:47.733Z,0.1
2022-08-17T10:16:57.445Z,0.3
2022-08-17T10:18:05.178Z,0.1
2022-08-17T10:19:14.897Z,0.6
2022-08-17T10:20:22.641Z,0.4
2022-08-17T10:21:31.350Z,0.1
2022-08-17T10:22:41.017Z,0.2
2022-08-17T10:23:48.717Z,0.4
2022-08-17T10:25:02.173Z,0.4
2022-08-17T10:26:07.103Z,0.1
2022-08-17T10:27:14.785Z,0.2
2022-08-17T10:28:27.352Z,0.1
2022-08-17T10:29:40.846Z,0.3
2022-08-17T10:30:43.860Z,0.2
2022-08-17T10:31:53.735Z,0.2
2022-08-17T10:33:03.421Z,0.1
2022-08-17T10:34:13.126Z,0.3
2022-08-17T10:35:21.828Z,0.2
2022-08-17T10:36:29.513Z,0.2
2022-08-17T10:37:39.355Z,0.3
2022-08-17T10:38:47.036Z,0.1
2022-08-17T10:39:55.793Z,0.3
2022-08-17T10:41:05.428Z,0.1
2022-08-17T10:42:14.101Z,0.5
2022-08-17T10:43:24.833Z,0.2
2022-08-17T10:44:36.858Z,0.1
2022-08-17T10:45:44.188Z,0.2
2022-08-17T10:46:54.907Z,0.3
2022-08-17T10:48:06.451Z,0.2
2022-08-17T10:49:15.271Z,0.2
2022-08-17T10:50:24.972Z,0.3
2022-08-17T10:51:32.659Z,0.2
2022-08-17T10:52:42.355Z,0.1
2022-08-17T10:53:51.031Z,0.4
2022-08-17T10:54:59.733Z,0.2
2022-08-17T10:56:09.442Z,0.3
2022-08-17T10:57:19.130Z,0.3
2022-08-17T10:58:27.822Z,0.3
2022-08-17T10:59:37.524Z,0.2
2022-08-17T11:00:45.288Z,0.4
2022-08-17T11:01:53.970Z,0.2
2022-08-17T11:03:02.646Z,0.2
2022-08-17T11:04:12.343Z,0.2
2022-08-17T11:05:22.034Z,0.2
2022-08-17T11:06:29.737Z,0.5
2022-08-17T11:07:38.422Z,0.1
2022-08-17T11:08:48.119Z,0.1
2022-08-17T11:09:56.857Z,0.3
2022-08-17T11:11:06.622Z,0.2
2022-08-17T11:12:15.360Z,0.4
2022-08-17T11:13:23.035Z,0.4
2022-08-17T11:14:32.789Z,0.3
2022-08-17T11:15:42.504Z,0.5
2022-08-17T11:16:52.183Z,0.2
2022-08-17T11:18:00.906Z,0.2
2022-08-17T11:19:09.636Z,0.3
2022-08-17T11:20:19.356Z,0.2
2022-08-17T11:21:27.083Z,0.4
2022-08-17T11:22:36.746Z,0.3
2022-08-17T11:23:45.470Z,0.2
2022-08-17T11:24:53.199Z,0.5
2022-08-17T11:26:02.906Z,0.4
2022-08-17T11:27:12.004Z,0.1
2022-08-17T11:28:20.284Z,0.1
2022-08-17T11:29:29.974Z,0.1
2022-08-17T11:30:38.652Z,0.2
2022-08-17T11:31:48.337Z,0.2
2022-08-17T11:32:58.103Z,0.3
2022-08-17T11:34:06.813Z,0.3
2022-08-17T11:35:16.629Z,0.2
2022-08-17T11:36:25.337Z,0.2
2022-08-17T11:37:34.032Z,0.1
2022-08-17T11:38:43.738Z,0.4
2022-08-17T11:39:53.430Z,0.2
2022-08-17T11:41:03.263Z,0.4
2022-08-17T11:42:12.067Z,0.4
2022-08-17T11:43:19.678Z,0.2
2022-08-17T11:44:30.401Z,0.5
2022-08-17T11:45:39.071Z,0.3
2022-08-17T11:46:51.073Z,0.3
2022-08-17T11:48:24.156Z,0.3
2022-08-17T11:49:09.141Z,0.4
2022-08-17T11:50:18.858Z,0.2
2022-08-17T11:51:27.525Z,0.4
2022-08-17T11:52:35.247Z,0.2
2022-08-17T11:53:44.996Z,0.3
2022-08-17T11:54:52.668Z,0.4
2022-08-17T11:56:01.399Z,0.2
2022-08-17T11:57:11.081Z,0.2
2022-08-17T11:58:19.817Z,0.2
2022-08-17T11:59:29.501Z,0.5
2022-08-17T12:00:38.227Z,0.3
2022-08-17T12:01:45.926Z,0.2
2022-08-17T12:02:55.712Z,0.3
2022-08-17T12:04:03.478Z,0.4
2022-08-17T12:05:13.131Z,0.4
2022-08-17T12:06:22.798Z,0.3
2022-08-17T12:07:31.447Z,0.1
2022-08-17T12:08:41.141Z,0.2
2022-08-17T12:09:49.844Z,0.3
2022-08-17T12:10:58.517Z,0.1
2022-08-17T12:12:12.261Z,0.2
2022-08-17T12:13:16.855Z,0.2
2022-08-17T12:14:40.059Z,0.2
2022-08-17T12:15:36.212Z,0.2
2022-08-17T12:16:44.973Z,0.4
2022-08-17T12:17:53.929Z,0.2
2022-08-17T12:19:01.371Z,0.2
2022-08-17T12:20:11.074Z,0.3
2022-08-17T12:21:20.842Z,0.2
2022-08-17T12:22:28.516Z,0.4
2022-08-17T12:23:38.208Z,0.2
2022-08-17T12:24:46.899Z,0.4
2022-08-17T12:25:54.618Z,0.5
2022-08-17T12:27:04.340Z,0.1
2022-08-17T12:28:17.950Z,0.3
2022-08-17T12:29:35.340Z,0.3
2022-08-17T12:30:35.464Z,0.1
2022-08-17T12:31:44.145Z,0.2
2022-08-17T12:32:52.857Z,0.2
2022-08-17T12:34:02.534Z,0.2
2022-08-17T12:35:10.195Z,0.2
2022-08-17T12:36:19.877Z,0.1
2022-08-17T12:37:27.545Z,0
2022-08-17T12:38:35.338Z,0.2
2022-08-17T12:39:45.083Z,0.3
2022-08-17T12:40:52.692Z,0.1
2022-08-17T12:42:02.978Z,0.3
2022-08-17T12:43:12.053Z,0.2
2022-08-17T12:44:19.862Z,0.3
2022-08-17T12:45:29.566Z,0.3
2022-08-17T12:46:39.241Z,0.4
2022-08-17T12:47:46.953Z,0.3
2022-08-17T12:48:58.753Z,0.2
2022-08-17T12:50:05.373Z,0.2
2022-08-17T12:51:15.040Z,0.2
2022-08-17T12:52:24.785Z,0.4
2022-08-17T12:53:33.459Z,0.4
2022-08-17T12:54:43.218Z,0.2
2022-08-17T12:55:51.899Z,0.4
2022-08-17T12:56:59.572Z,0.2
2022-08-17T12:58:13.658Z,0.1
2022-08-17T12:59:17.942Z,0.4
2022-08-17T13:00:27.616Z,0.1
2022-08-17T13:01:37.334Z,0.2
2022-08-17T13:02:44.999Z,0.2
2022-08-17T13:03:54.665Z,0.2
2022-08-17T13:05:03.388Z,0.2
2022-08-17T13:06:11.081Z,0.3
2022-08-17T13:07:20.825Z,0.2
2022-08-17T13:08:30.588Z,0.2
2022-08-17T13:09:40.930Z,0.1
2022-08-17T13:10:50.100Z,0.2
2022-08-17T13:11:59.783Z,0.4
2022-08-17T13:13:09.493Z,0.3
2022-08-17T13:14:17.185Z,0.1
2022-08-17T13:15:26.907Z,0.3
2022-08-17T13:16:35.607Z,0.2
2022-08-17T13:17:43.363Z,0.4
2022-08-17T13:18:52.025Z,0.3
2022-08-17T13:19:59.689Z,0.3
2022-08-17T13:21:08.360Z,0.2
2022-08-17T13:22:17.040Z,0.3
2022-08-17T13:23:26.712Z,0.1
2022-08-17T13:24:37.742Z,0.3
2022-08-17T13:25:45.067Z,0.2
2022-08-17T13:26:53.787Z,0.3
2022-08-17T13:28:03.455Z,0.2
2022-08-17T13:29:12.147Z,0.2
2022-08-17T13:30:20.896Z,0.1
2022-08-17T13:31:30.620Z,0.4
2022-08-17T13:32:39.875Z,0.3
2022-08-17T13:33:50.040Z,0.2
2022-08-17T13:35:13.305Z,0.3
2022-08-17T13:36:09.411Z,0.3
2022-08-17T13:37:20.729Z,0.4
2022-08-17T13:38:28.851Z,0.2
2022-08-17T13:39:37.589Z,0.4
2022-08-17T13:40:47.233Z,0.1
2022-08-17T13:41:56.115Z,0.2
2022-08-17T13:43:05.795Z,0.2
2022-08-17T13:44:15.486Z,0.2
2022-08-17T13:45:35.846Z,0.2
2022-08-17T13:46:35.869Z,0.3
2022-08-17T13:47:44.811Z,0.2
2022-08-17T13:48:53.377Z,0.1
2022-08-17T13:50:03.152Z,0.3
2022-08-17T13:51:10.834Z,0.6
2022-08-17T13:52:20.510Z,0.3
2022-08-17T13:53:31.045Z,0.1
2022-08-17T13:54:37.919Z,0.2
2022-08-17T13:55:47.640Z,0.2
2022-08-17T13:56:55.305Z,0.2
2022-08-17T13:58:07.312Z,0.1
2022-08-17T13:59:14.836Z,0.2
2022-08-17T14:00:22.514Z,0.2
2022-08-17T14:01:32.240Z,0.2
2022-08-17T14:02:40.872Z,0.1
2022-08-17T14:03:51.387Z,0.3
2022-08-17T14:05:00.267Z,0.2
2022-08-17T14:06:08.933Z,0
2022-08-17T14:07:17.611Z,0.2
2022-08-17T14:08:27.324Z,0.2
2022-08-17T14:09:37.629Z,0.1
2022-08-17T14:10:46.790Z,0.1
2022-08-17T14:11:55.451Z,0.1
2022-08-17T14:13:04.136Z,0.2
2022-08-17T14:14:13.837Z,0.1
2022-08-17T14:15:22.502Z,0.1
2022-08-17T14:16:31.266Z,0.2
2022-08-17T14:17:40.940Z,0.2
2022-08-17T14:18:55.599Z,0.2
2022-08-17T14:20:00.283Z,0.2
2022-08-17T14:21:08.933Z,0.2
2022-08-17T14:22:16.626Z,0.1
2022-08-17T14:23:26.329Z,0.1
2022-08-17T14:24:33.995Z,0.3
2022-08-17T14:25:42.693Z,0.1
2022-08-17T14:26:52.415Z,0.1
2022-08-17T14:28:00.467Z,0.1
2022-08-17T14:29:12.635Z,0.2
2022-08-17T14:30:18.445Z,0.1
2022-08-17T14:31:27.148Z,0.1
2022-08-17T14:32:36.841Z,0.2
2022-08-17T14:33:46.563Z,0.1
2022-08-17T14:34:55.248Z,0.2
2022-08-17T14:36:04.946Z,0.2
2022-08-17T14:37:13.638Z,0.2
2022-08-17T14:38:23.307Z,0.2
2022-08-17T14:39:32.050Z,0.2
2022-08-17T14:40:39.710Z,0.2
2022-08-17T14:41:48.389Z,0.2
2022-08-17T14:42:57.080Z,0.1
2022-08-17T14:44:05.782Z,0.2
2022-08-17T14:45:27.257Z,0.2
2022-08-17T14:46:24.147Z,0.1
2022-08-17T14:47:33.831Z,0.1
2022-08-17T14:48:42.494Z,0.4
2022-08-17T14:49:51.195Z,0.3
2022-08-17T14:51:01.086Z,0.2
2022-08-17T14:52:08.795Z,0.2
2022-08-17T14:53:17.467Z,0.3
2022-08-17T14:54:33.745Z,0.4
2022-08-17T14:55:36.870Z,0.3
2022-08-17T14:56:46.565Z,0.1
2022-08-17T14:57:55.275Z,0.1
2022-08-17T14:59:03.963Z,0.1
2022-08-17T15:00:13.636Z,0.1
2022-08-17T15:01:22.332Z,0.4
2022-08-17T15:02:31.971Z,0.2
2022-08-17T15:03:40.675Z,0.2
2022-08-17T15:04:49.400Z,0.3
2022-08-17T15:05:58.088Z,0.2
2022-08-17T15:07:06.789Z,0.2
2022-08-17T15:08:14.487Z,0.2
2022-08-17T15:09:23.219Z,0.2
2022-08-17T15:10:31.885Z,0.1
2022-08-17T15:11:41.576Z,0.2
2022-08-17T15:12:48.255Z,0.2
2022-08-17T15:13:56.978Z,0.3
2022-08-17T15:15:06.721Z,0.3
2022-08-17T15:16:14.416Z,0.2
2022-08-17T15:17:24.112Z,0.1
2022-08-17T15:18:33.824Z,0.1
2022-08-17T15:19:41.575Z,0.2
2022-08-17T15:20:51.283Z,0.2
2022-08-17T15:21:59.019Z,0.3
2022-08-17T15:23:07.736Z,0.1
2022-08-17T15:24:16.422Z,0.1
2022-08-17T15:25:25.157Z,0.3
2022-08-17T15:26:34.877Z,0.3
2022-08-17T15:27:43.609Z,0.2
2022-08-17T15:28:54.416Z,0.2
2022-08-17T15:30:03.914Z,0.4
2022-08-17T15:31:12.615Z,1
2022-08-17T15:32:21.303Z,0.9
2022-08-17T15:33:30.997Z,0.5
2022-08-17T15:34:38.718Z,0.6
2022-08-17T15:35:48.407Z,0.4
2022-08-17T15:36:57.138Z,0.7
2022-08-17T15:38:11.511Z,0.2
2022-08-17T15:39:19.533Z,0.6
2022-08-17T15:40:26.160Z,0.9
2022-08-17T15:41:34.908Z,0.4
2022-08-17T15:42:44.712Z,0.8
2022-08-17T15:43:52.396Z,0.5
2022-08-17T15:45:02.084Z,0.4
2022-08-17T15:46:10.782Z,0.4
2022-08-17T15:47:19.462Z,0.2
2022-08-17T15:48:29.193Z,0.3
2022-08-17T15:49:36.911Z,0.2
2022-08-17T15:50:45.594Z,0.1
2022-08-17T15:51:55.306Z,0.3
2022-08-17T15:53:05.109Z,0.1
2022-08-17T15:54:17.209Z,0.2
2022-08-17T15:55:24.526Z,0.5
2022-08-17T15:56:33.208Z,0.4